createdAt,value
2023-04-02T00:01:00.770Z,11.56
2023-04-02T00:03:45.988Z,11.94
2023-04-02T00:06:32.857Z,11.79
2023-04-02T00:09:16.207Z,11.90
2023-04-02T00:11:48.522Z,11.74
2023-04-02T00:14:26.434Z,11.92
2023-04-02T00:16:53.895Z,12.03
2023-04-02T00:19:38.582Z,11.97
2023-04-02T00:22:07.479Z,12.04
2023-04-02T00:24:34.223Z,12.06
2023-04-02T00:27:01.002Z,12.09
2023-04-02T00:29:27.927Z,12.19
2023-04-02T00:31:54.651Z,12.27
2023-04-02T00:34:21.322Z,12.11
2023-04-02T00:36:48.138Z,11.95
2023-04-02T00:39:23.488Z,12.01
2023-04-02T00:41:54.584Z,11.90
2023-04-02T00:44:21.989Z,11.84
2023-04-02T00:46:50.219Z,12.19
2023-04-02T00:49:22.859Z,12.28
2023-04-02T00:51:53.418Z,12.16
2023-04-02T00:54:21.498Z,12.12
2023-04-02T00:56:50.616Z,11.85
2023-04-02T00:59:25.517Z,12.15
2023-04-02T01:01:54.359Z,12.05
2023-04-02T01:04:39.630Z,12.26
2023-04-02T01:07:08.870Z,12.04
2023-04-02T01:09:44.352Z,11.62
2023-04-02T01:12:24.993Z,12.20
2023-04-02T01:15:07.451Z,12.26
2023-04-02T01:17:54.849Z,12.15
2023-04-02T01:20:40.223Z,12.11
2023-04-02T01:23:34.595Z,12.28
2023-04-02T01:26:09.313Z,12.15
2023-04-02T01:28:52.232Z,12.17
2023-04-02T01:31:18.895Z,12.08
2023-04-02T01:33:45.426Z,11.87
2023-04-02T01:36:18.330Z,12.08
2023-04-02T01:38:53.227Z,11.89
2023-04-02T01:41:23.649Z,11.70
2023-04-02T01:43:53.094Z,11.77
2023-04-02T01:46:30.292Z,11.84
2023-04-02T01:48:57.721Z,11.86
2023-04-02T01:51:34.061Z,11.92
2023-04-02T01:54:02.067Z,11.53
2023-04-02T01:56:30.311Z,11.69
2023-04-02T01:58:57.651Z,11.75
2023-04-02T02:01:27.001Z,12.03
2023-04-02T02:03:53.997Z,11.74
2023-04-02T02:06:20.668Z,11.56
2023-04-02T02:08:49.957Z,11.82
2023-04-02T02:11:18.351Z,11.52
2023-04-02T02:13:54.576Z,11.76
2023-04-02T02:16:23.858Z,11.67
2023-04-02T02:18:54.879Z,11.74
2023-04-02T02:21:26.673Z,11.82
2023-04-02T02:23:54.028Z,11.87
2023-04-02T02:26:22.320Z,12.02
2023-04-02T02:28:50.090Z,12.00
2023-04-02T02:31:19.628Z,11.73
2023-04-02T02:33:48.987Z,12.04
2023-04-02T02:36:45.559Z,11.95
2023-04-02T02:39:27.870Z,11.76
2023-04-02T02:42:00.266Z,11.96
2023-04-02T02:44:31.389Z,11.84
2023-04-02T02:47:09.174Z,11.75
2023-04-02T02:49:39.211Z,11.83
2023-04-02T02:52:08.729Z,11.81
2023-04-02T02:54:36.367Z,11.78
2023-04-02T02:57:05.991Z,11.75
2023-04-02T02:59:33.998Z,11.75
2023-04-02T03:02:01.835Z,11.90
2023-04-02T03:04:30.535Z,11.83
2023-04-02T03:06:58.053Z,11.84
2023-04-02T03:09:39.200Z,11.85
2023-04-02T03:12:28.665Z,11.84
2023-04-02T03:15:14.862Z,11.82
2023-04-02T03:17:43.961Z,11.83
2023-04-02T03:20:17.418Z,11.75
2023-04-02T03:22:52.316Z,11.88
2023-04-02T03:25:25.287Z,11.82
2023-04-02T03:27:53.978Z,11.79
2023-04-02T03:30:26.488Z,11.68
2023-04-02T03:32:55.119Z,11.52
2023-04-02T03:35:32.448Z,11.76
2023-04-02T03:38:02.701Z,11.73
2023-04-02T03:40:31.734Z,11.72
2023-04-02T03:43:04.820Z,11.71
2023-04-02T03:45:37.841Z,11.80
2023-04-02T03:48:08.640Z,11.65
2023-04-02T03:50:48.356Z,11.86
2023-04-02T03:53:14.865Z,11.62
2023-04-02T03:55:42.522Z,11.66
2023-04-02T03:58:12.077Z,11.64
2023-04-02T04:00:47.142Z,11.81
2023-04-02T04:03:19.607Z,11.90
2023-04-02T04:05:49.579Z,11.80
2023-04-02T04:08:19.178Z,11.86
2023-04-02T04:10:46.571Z,11.81
2023-04-02T04:13:15.282Z,11.78
2023-04-02T04:15:50.364Z,11.82
2023-04-02T04:18:34.784Z,11.83
2023-04-02T04:21:02.971Z,11.82
2023-04-02T04:23:32.657Z,11.65
2023-04-02T04:25:59.224Z,11.67
2023-04-02T04:28:30.675Z,11.66
2023-04-02T04:31:01.897Z,11.77
2023-04-02T04:33:34.764Z,11.74
2023-04-02T04:36:02.874Z,11.74
2023-04-02T04:38:34.112Z,11.71
2023-04-02T04:41:21.396Z,11.74
2023-04-02T04:44:06.806Z,11.70
2023-04-02T04:46:33.556Z,11.71
2023-04-02T04:49:32.451Z,11.71
2023-04-02T04:52:37.652Z,11.63
2023-04-02T04:55:19.087Z,11.71
2023-04-02T04:57:48.743Z,11.58
2023-04-02T05:00:21.822Z,11.78
2023-04-02T05:02:50.843Z,11.78
2023-04-02T05:05:24.513Z,11.76
2023-04-02T05:07:52.910Z,11.65
2023-04-02T05:10:30.851Z,11.56
2023-04-02T05:13:29.817Z,11.69
2023-04-02T05:16:11.695Z,11.88
2023-04-02T05:18:41.782Z,11.74
2023-04-02T05:21:14.123Z,11.67
2023-04-02T05:23:51.453Z,11.60
2023-04-02T05:26:25.807Z,11.60
2023-04-02T05:28:55.818Z,11.65
2023-04-02T05:31:26.297Z,11.61
2023-04-02T05:33:53.721Z,11.79
2023-04-02T05:36:22.453Z,11.75
2023-04-02T05:38:49.721Z,11.75
2023-04-02T05:41:19.637Z,11.69
2023-04-02T05:43:49.719Z,11.71
2023-04-02T05:46:17.932Z,11.79
2023-04-02T05:48:47.089Z,11.76
2023-04-02T05:51:19.009Z,11.83
2023-04-02T05:54:05.924Z,11.94
2023-04-02T05:56:40.986Z,11.83
2023-04-02T05:59:11.805Z,11.84
2023-04-02T06:01:39.079Z,11.90
2023-04-02T06:04:17.515Z,11.84
2023-04-02T06:06:47.286Z,11.93
2023-04-02T06:09:23.906Z,11.86
2023-04-02T06:11:54.783Z,11.87
2023-04-02T06:14:21.262Z,11.93
2023-04-02T06:16:48.124Z,11.84
2023-04-02T06:19:25.847Z,11.88
2023-04-02T06:21:53.066Z,11.74
2023-04-02T06:24:21.581Z,11.57
2023-04-02T06:26:52.168Z,11.17
2023-04-02T06:29:27.419Z,10.92
2023-04-02T06:31:56.502Z,10.78
2023-04-02T06:34:27.844Z,10.71
2023-04-02T06:36:59.107Z,10.69
2023-04-02T06:39:27.110Z,10.60
2023-04-02T06:42:00.677Z,10.42
2023-04-02T06:44:28.586Z,10.39
2023-04-02T06:46:58.157Z,10.24
2023-04-02T06:49:30.658Z,10.31
2023-04-02T06:51:58.250Z,10.42
2023-04-02T06:54:24.979Z,10.44
2023-04-02T06:56:52.647Z,10.42
2023-04-02T06:59:19.459Z,9.78
2023-04-02T07:01:52.382Z,9.98
2023-04-02T07:04:19.677Z,9.84
2023-04-02T07:06:46.673Z,9.90
2023-04-02T07:09:13.280Z,9.75
2023-04-02T07:11:40.338Z,9.89
2023-04-02T07:14:07.895Z,9.85
2023-04-02T07:16:34.611Z,9.87
2023-04-02T07:19:01.165Z,9.58
2023-04-02T07:21:27.896Z,9.59
2023-04-02T07:23:55.567Z,9.74
2023-04-02T07:26:27.327Z,9.86
2023-04-02T07:28:54.719Z,9.82
2023-04-02T07:31:24.367Z,10.02
2023-04-02T07:33:51.464Z,10.09
2023-04-02T07:36:19.721Z,9.93
2023-04-02T07:38:47.371Z,10.02
2023-04-02T07:41:14.139Z,10.07
2023-04-02T07:43:41.026Z,10.10
2023-04-02T07:46:08.649Z,9.83
2023-04-02T07:48:36.994Z,9.60
2023-04-02T07:51:04.473Z,9.66
2023-04-02T07:53:35.792Z,9.71
2023-04-02T07:56:03.024Z,9.61
2023-04-02T07:58:30.191Z,9.57
2023-04-02T08:00:56.831Z,9.01
2023-04-02T08:03:23.459Z,9.23
2023-04-02T08:05:58.867Z,9.12
2023-04-02T08:08:25.781Z,9.33
2023-04-02T08:10:52.326Z,8.94
2023-04-02T08:13:18.824Z,9.21
2023-04-02T08:15:45.934Z,9.42
2023-04-02T08:18:12.934Z,9.35
2023-04-02T08:20:40.679Z,9.70
2023-04-02T08:23:13.530Z,9.43
2023-04-02T08:25:39.964Z,9.36
2023-04-02T08:28:06.462Z,9.71
2023-04-02T08:30:33.346Z,10.12
2023-04-02T08:33:05.825Z,9.60
2023-04-02T08:35:32.823Z,9.79
2023-04-02T08:37:59.461Z,9.56
2023-04-02T08:40:29.006Z,10.02
2023-04-02T08:43:01.843Z,9.96
2023-04-02T08:45:39.876Z,10.07
2023-04-02T08:48:09.660Z,10.10
2023-04-02T08:50:41.788Z,9.64
2023-04-02T08:53:15.272Z,9.89
2023-04-02T08:55:50.143Z,9.65
2023-04-02T08:58:32.239Z,9.76
2023-04-02T09:01:00.587Z,9.90
2023-04-02T09:03:33.891Z,9.84
2023-04-02T09:06:02.537Z,9.52
2023-04-02T09:08:35.800Z,9.89
2023-04-02T09:11:17.282Z,9.69
2023-04-02T09:13:46.553Z,9.50
2023-04-02T09:16:13.124Z,9.66
2023-04-02T09:18:54.354Z,9.89
2023-04-02T09:21:35.915Z,9.72
2023-04-02T09:24:04.730Z,9.72
2023-04-02T09:26:33.170Z,9.94
2023-04-02T09:29:02.116Z,10.04
2023-04-02T09:31:50.949Z,9.73
2023-04-02T09:34:32.293Z,10.36
2023-04-02T09:37:11.205Z,10.09
2023-04-02T09:39:39.341Z,10.40
2023-04-02T09:42:07.724Z,9.99
2023-04-02T09:44:36.542Z,10.46
2023-04-02T09:47:05.499Z,10.84
2023-04-02T09:49:40.480Z,10.16
2023-04-02T09:52:19.903Z,10.71
2023-04-02T09:54:47.216Z,10.98
2023-04-02T09:57:26.456Z,10.36
2023-04-02T10:00:29.759Z,9.68
2023-04-02T10:03:02.978Z,10.20
2023-04-02T10:08:08.919Z,10.59
2023-04-02T10:10:43.879Z,10.54
2023-04-02T10:13:18.178Z,11.10
2023-04-02T10:15:48.722Z,10.72
2023-04-02T10:18:33.273Z,10.65
2023-04-02T10:21:01.480Z,10.75
2023-04-02T10:23:29.306Z,10.87
2023-04-02T10:25:58.899Z,10.86
2023-04-02T10:28:40.965Z,10.78
2023-04-02T10:31:26.431Z,10.90
2023-04-02T10:34:01.240Z,10.98
2023-04-02T10:36:43.024Z,10.52
2023-04-02T10:39:16.136Z,10.86
2023-04-02T10:41:48.755Z,10.36
2023-04-02T10:44:30.954Z,10.47
2023-04-02T10:47:13.865Z,10.36
2023-04-02T10:49:53.090Z,10.54
2023-04-02T10:52:19.650Z,10.94
2023-04-02T10:54:48.598Z,10.25
2023-04-02T10:57:24.234Z,10.49
2023-04-02T11:00:09.862Z,10.45
2023-04-02T11:02:36.693Z,11.02
2023-04-02T11:05:18.448Z,11.12
2023-04-02T11:08:03.027Z,10.89
2023-04-02T11:10:31.892Z,11.10
2023-04-02T11:13:05.491Z,10.68
2023-04-02T11:15:32.125Z,10.49
2023-04-02T11:17:58.839Z,10.56
2023-04-02T11:20:56.318Z,10.41
2023-04-02T11:23:26.644Z,10.09
2023-04-02T11:26:13.054Z,10.57
2023-04-02T11:28:41.305Z,10.77
2023-04-02T11:31:07.983Z,10.65
2023-04-02T11:33:39.198Z,10.61
2023-04-02T11:36:34.452Z,11.05
2023-04-02T11:39:14.592Z,10.60
2023-04-02T11:42:01.258Z,10.52
2023-04-02T11:44:27.762Z,10.55
2023-04-02T11:47:14.106Z,10.36
2023-04-02T11:49:56.445Z,11.07
2023-04-02T11:52:34.058Z,10.88
2023-04-02T11:55:02.507Z,10.11
2023-04-02T11:57:39.762Z,10.81
2023-04-02T12:00:11.295Z,10.48
2023-04-02T12:02:53.515Z,10.72
2023-04-02T12:05:32.248Z,11.24
2023-04-02T12:08:17.393Z,10.98
2023-04-02T12:11:00.707Z,11.03
2023-04-02T12:13:39.659Z,11.07
2023-04-02T12:16:07.401Z,11.14
2023-04-02T12:18:34.476Z,11.16
2023-04-02T12:21:01.214Z,11.26
2023-04-02T12:23:37.711Z,10.91
2023-04-02T12:26:06.608Z,10.21
2023-04-02T12:28:38.380Z,10.52
2023-04-02T12:31:08.115Z,10.38
2023-04-02T12:33:37.682Z,10.31
2023-04-02T12:36:17.109Z,9.96
2023-04-02T12:38:45.189Z,10.15
2023-04-02T12:41:27.051Z,10.37
2023-04-02T12:43:57.591Z,9.92
2023-04-02T12:46:25.962Z,10.01
2023-04-02T12:48:54.299Z,10.05
2023-04-02T12:51:21.259Z,9.64
2023-04-02T12:53:51.985Z,9.51
2023-04-02T12:56:22.451Z,9.36
2023-04-02T12:58:54.048Z,9.55
2023-04-02T13:01:23.694Z,9.46
2023-04-02T13:03:59.221Z,9.55
2023-04-02T13:06:31.958Z,9.67
2023-04-02T13:09:12.794Z,9.61
2023-04-02T13:11:40.561Z,9.56
2023-04-02T13:14:11.732Z,9.08
2023-04-02T13:16:41.063Z,9.33
2023-04-02T13:19:19.131Z,9.26
2023-04-02T13:21:46.173Z,9.23
2023-04-02T13:24:22.346Z,9.16
2023-04-02T13:26:52.179Z,9.60
2023-04-02T13:29:20.294Z,9.50
2023-04-02T13:31:52.422Z,9.59
2023-04-02T13:34:30.217Z,9.34
2023-04-02T13:36:59.565Z,9.37
2023-04-02T13:39:31.341Z,9.56
2023-04-02T13:42:01.774Z,9.21
2023-04-02T13:44:29.885Z,9.26
2023-04-02T13:46:56.784Z,9.41
2023-04-02T13:49:29.013Z,9.13
2023-04-02T13:51:59.492Z,9.33
2023-04-02T13:54:30.076Z,9.28
2023-04-02T13:56:59.313Z,9.11
2023-04-02T13:59:26.130Z,9.27
2023-04-02T14:01:56.921Z,8.93
2023-04-02T14:04:35.789Z,8.81
2023-04-02T14:07:14.684Z,9.20
2023-04-02T14:09:41.348Z,9.50
2023-04-02T14:12:24.788Z,9.11
2023-04-02T14:15:10.118Z,9.14
2023-04-02T14:17:36.566Z,9.53
2023-04-02T14:20:06.888Z,9.31
2023-04-02T14:22:43.886Z,9.32
2023-04-02T14:25:23.318Z,8.94
2023-04-02T14:28:22.378Z,8.77
2023-04-02T14:30:59.108Z,8.65
2023-04-02T14:33:47.370Z,8.86
2023-04-02T14:36:31.533Z,8.87
2023-04-02T14:39:09.100Z,8.98
2023-04-02T14:41:41.156Z,9.07
2023-04-02T14:44:11.893Z,8.89
2023-04-02T14:46:42.435Z,8.54
2023-04-02T14:49:24.283Z,8.73
2023-04-02T14:52:01.542Z,8.82
2023-04-02T14:54:44.819Z,8.61
2023-04-02T14:57:18.866Z,8.44
2023-04-02T14:59:47.816Z,8.38
2023-04-02T15:02:22.111Z,8.48
2023-04-02T15:05:01.211Z,8.42
2023-04-02T15:07:34.767Z,8.52
2023-04-02T15:10:14.518Z,8.26
2023-04-02T15:12:41.390Z,8.04
2023-04-02T15:15:13.996Z,8.33
2023-04-02T15:17:40.665Z,8.44
2023-04-02T15:20:18.101Z,8.07
2023-04-02T15:22:51.493Z,8.49
2023-04-02T15:25:31.121Z,8.55
2023-04-02T15:28:05.642Z,8.35
2023-04-02T15:30:37.614Z,8.48
2023-04-02T15:33:23.326Z,7.97
2023-04-02T15:35:54.190Z,8.04
2023-04-02T15:38:32.965Z,8.18
2023-04-02T15:41:11.744Z,8.12
2023-04-02T15:43:41.677Z,7.69
2023-04-02T15:46:28.473Z,7.78
2023-04-02T15:49:10.195Z,8.23
2023-04-02T15:51:51.225Z,8.32
2023-04-02T15:54:26.915Z,8.46
2023-04-02T15:56:56.836Z,8.35
2023-04-02T15:59:41.891Z,8.58
2023-04-02T16:02:17.545Z,7.86
2023-04-02T16:05:04.799Z,8.03
2023-04-02T16:07:49.878Z,8.10
2023-04-02T16:10:37.784Z,7.80
2023-04-02T16:13:20.594Z,7.68
2023-04-02T16:15:51.563Z,8.02
2023-04-02T16:18:24.538Z,7.78
2023-04-02T16:20:51.958Z,8.08
2023-04-02T16:23:20.750Z,8.09
2023-04-02T16:25:57.282Z,7.86
2023-04-02T16:28:36.188Z,7.50
2023-04-02T16:31:02.812Z,7.80
2023-04-02T16:33:35.450Z,8.04
2023-04-02T16:36:08.235Z,8.01
2023-04-02T16:38:43.363Z,7.95
2023-04-02T16:41:22.616Z,8.06
2023-04-02T16:44:15.501Z,8.43
2023-04-02T16:46:55.981Z,8.47
2023-04-02T16:49:26.726Z,8.19
2023-04-02T16:51:56.859Z,8.05
2023-04-02T16:54:34.253Z,8.00
2023-04-02T16:57:19.993Z,8.11
2023-04-02T16:59:49.684Z,8.02
2023-04-02T17:02:25.371Z,7.98
2023-04-02T17:04:53.444Z,8.01
2023-04-02T17:07:26.187Z,8.19
2023-04-02T17:09:54.574Z,8.25
2023-04-02T17:12:27.215Z,7.99
2023-04-02T17:14:59.577Z,7.71
2023-04-02T17:17:26.397Z,7.72
2023-04-02T17:19:55.988Z,8.10
2023-04-02T17:22:23.508Z,7.78
2023-04-02T17:24:56.094Z,7.86
2023-04-02T17:27:27.692Z,7.90
2023-04-02T17:30:00.169Z,7.66
2023-04-02T17:32:32.507Z,7.44
2023-04-02T17:35:19.441Z,7.90
2023-04-02T17:37:49.381Z,7.76
2023-04-02T17:40:35.199Z,7.42
2023-04-02T17:43:10.444Z,7.52
2023-04-02T17:45:47.879Z,7.57
2023-04-02T17:48:34.526Z,7.54
2023-04-02T17:51:25.309Z,7.79
2023-04-02T17:54:18.601Z,7.46
2023-04-02T17:56:45.694Z,7.26
2023-04-02T17:59:31.351Z,7.66
2023-04-02T18:02:21.037Z,7.37
2023-04-02T18:04:59.144Z,7.23
2023-04-02T18:07:31.666Z,7.50
2023-04-02T18:10:01.431Z,7.24
2023-04-02T18:12:28.983Z,7.08
2023-04-02T18:15:05.720Z,7.26
2023-04-02T18:17:47.975Z,7.29
2023-04-02T18:20:24.396Z,7.50
2023-04-02T18:22:58.192Z,7.43
2023-04-02T18:25:24.747Z,7.22
2023-04-02T18:28:15.439Z,7.30
2023-04-02T18:31:08.084Z,7.24
2023-04-02T18:33:40.561Z,7.25
2023-04-02T18:36:22.849Z,7.61
2023-04-02T18:39:02.054Z,7.39
2023-04-02T18:41:47.069Z,7.58
2023-04-02T18:44:26.950Z,7.48
2023-04-02T18:47:09.423Z,7.44
2023-04-02T18:49:41.149Z,7.19
2023-04-02T18:52:12.576Z,7.39
2023-04-02T18:54:53.588Z,7.54
2023-04-02T18:57:29.360Z,7.39
2023-04-02T19:00:07.861Z,7.35
2023-04-02T19:02:42.349Z,7.41
2023-04-02T19:05:36.438Z,7.34
2023-04-02T19:08:07.578Z,7.27
2023-04-02T19:10:39.077Z,7.21
2023-04-02T19:13:13.564Z,7.23
2023-04-02T19:15:49.973Z,7.28
2023-04-02T19:18:26.314Z,7.46
2023-04-02T19:21:00.808Z,7.41
2023-04-02T19:23:38.159Z,7.66
2023-04-02T19:26:28.753Z,7.48
2023-04-02T19:29:14.380Z,7.36
2023-04-02T19:31:43.982Z,7.42
2023-04-02T19:34:29.292Z,7.42
2023-04-02T19:37:05.678Z,7.50
2023-04-02T19:39:35.040Z,7.35
2023-04-02T19:42:10.476Z,7.43
2023-04-02T19:44:41.010Z,7.30
2023-04-02T19:47:10.177Z,7.23
2023-04-02T19:49:37.215Z,7.38
2023-04-02T19:52:06.030Z,7.37
2023-04-02T19:54:32.497Z,7.30
2023-04-02T19:57:00.483Z,7.51
2023-04-02T19:59:27.337Z,7.73
2023-04-02T20:01:53.789Z,7.45
2023-04-02T20:04:20.398Z,7.45
2023-04-02T20:06:46.941Z,7.06
2023-04-02T20:09:13.816Z,7.67
2023-04-02T20:11:40.608Z,7.63
2023-04-02T20:14:07.220Z,7.45
2023-04-02T20:16:34.449Z,7.37
2023-04-02T20:19:01.164Z,7.44
2023-04-02T20:21:28.216Z,7.34
2023-04-02T20:23:55.423Z,7.48
2023-04-02T20:26:22.583Z,7.32
2023-04-02T20:28:49.144Z,7.35
2023-04-02T20:31:17.268Z,7.29
2023-04-02T20:33:47.929Z,7.30
2023-04-02T20:36:15.849Z,7.09
2023-04-02T20:38:42.750Z,7.18
2023-04-02T20:41:09.484Z,7.23
2023-04-02T20:43:36.606Z,7.21
2023-04-02T20:46:05.655Z,7.33
2023-04-02T20:48:32.593Z,7.25
2023-04-02T20:51:00.012Z,7.36
2023-04-02T20:53:28.897Z,7.15
2023-04-02T20:56:02.287Z,7.27
2023-04-02T20:58:28.795Z,7.21
2023-04-02T21:00:55.341Z,7.28
2023-04-02T21:03:22.063Z,7.12
2023-04-02T21:05:48.694Z,7.18
2023-04-02T21:08:15.533Z,7.21
2023-04-02T21:10:42.338Z,7.36
2023-04-02T21:13:08.829Z,7.12
2023-04-02T21:15:35.792Z,7.35
2023-04-02T21:18:02.470Z,7.17
2023-04-02T21:20:29.128Z,7.41
2023-04-02T21:22:58.250Z,7.28
2023-04-02T21:25:24.710Z,7.14
2023-04-02T21:27:51.918Z,7.25
2023-04-02T21:30:18.381Z,7.01
2023-04-02T21:32:44.892Z,7.19
2023-04-02T21:35:11.494Z,7.34
2023-04-02T21:37:37.995Z,7.34
2023-04-02T21:40:04.693Z,7.35
2023-04-02T21:42:31.309Z,7.42
2023-04-02T21:44:57.911Z,7.47
2023-04-02T21:47:25.064Z,7.38
2023-04-02T21:49:51.538Z,7.49
2023-04-02T21:52:17.973Z,7.42
2023-04-02T21:54:44.798Z,7.49
2023-04-02T21:57:11.297Z,7.50
2023-04-02T21:59:37.857Z,7.43
2023-04-02T22:02:04.984Z,7.39
2023-04-02T22:04:33.312Z,7.22
2023-04-02T22:06:59.993Z,7.17
2023-04-02T22:09:27.108Z,7.29
2023-04-02T22:11:55.244Z,7.41
2023-04-02T22:14:24.666Z,7.15
2023-04-02T22:16:52.032Z,7.38
2023-04-02T22:19:18.908Z,7.33
2023-04-02T22:21:45.879Z,7.11
2023-04-02T22:24:13.481Z,7.40
2023-04-02T22:26:41.011Z,7.16
2023-04-02T22:29:07.909Z,7.02
2023-04-02T22:31:35.449Z,7.03
2023-04-02T22:34:03.642Z,7.15
2023-04-02T22:36:31.032Z,7.08
2023-04-02T22:38:58.324Z,7.36
2023-04-02T22:41:27.256Z,7.37
2023-04-02T22:43:55.563Z,7.38
2023-04-02T22:46:22.204Z,7.14
2023-04-02T22:48:49.383Z,7.21
2023-04-02T22:51:16.773Z,7.23
2023-04-02T22:53:43.750Z,7.24
2023-04-02T22:56:11.850Z,7.32
2023-04-02T22:58:38.834Z,7.15
2023-04-02T23:01:06.590Z,7.14
2023-04-02T23:03:33.103Z,7.21
2023-04-02T23:06:04.186Z,7.09
2023-04-02T23:08:30.871Z,7.20
2023-04-02T23:11:04.746Z,7.30
2023-04-02T23:13:31.341Z,7.35
2023-04-02T23:15:57.909Z,7.26
2023-04-02T23:18:24.411Z,7.21
2023-04-02T23:20:51.379Z,7.20
2023-04-02T23:23:17.836Z,7.25
2023-04-02T23:25:44.463Z,7.28
2023-04-02T23:28:12.531Z,7.30
2023-04-02T23:30:41.654Z,7.13
2023-04-02T23:33:08.169Z,6.82
2023-04-02T23:35:35.195Z,7.07
2023-04-02T23:38:03.133Z,7.25
2023-04-02T23:40:29.607Z,7.26
2023-04-02T23:42:56.077Z,7.38
2023-04-02T23:45:22.493Z,7.36
2023-04-02T23:47:48.925Z,7.15
2023-04-02T23:50:15.622Z,6.93
2023-04-02T23:52:43.353Z,7.19
2023-04-02T23:55:12.381Z,7.22
2023-04-02T23:57:38.889Z,7.05
